createdAt,value
2022-09-02T00:00:30.344Z,95419.66
2022-09-02T00:04:15.370Z,95416.44
2022-09-02T00:07:59.492Z,95422.16
2022-09-02T00:11:44.754Z,95415.28
2022-09-02T00:15:27.523Z,95410.66
2022-09-02T00:19:11.103Z,95416.97
2022-09-02T00:22:53.961Z,95407.66
2022-09-02T00:26:38.474Z,95404.66
2022-09-02T00:30:21.311Z,95397.16
2022-09-02T00:34:04.814Z,95401.06
2022-09-02T00:37:47.559Z,95402.53
2022-09-02T00:41:30.829Z,95392.41
2022-09-02T00:45:15.050Z,95399.34
2022-09-02T00:49:02.885Z,95394.50
2022-09-02T00:52:47.561Z,95396.56
2022-09-02T00:56:32.070Z,95386.44
2022-09-02T01:00:18.860Z,95387.69
2022-09-02T01:04:01.714Z,95382.25
2022-09-02T01:07:44.969Z,95384.09
2022-09-02T01:11:31.977Z,95385.94
2022-09-02T01:15:16.554Z,95387.78
2022-09-02T01:19:01.227Z,95382.94
2022-09-02T01:22:46.252Z,95383.16
2022-09-02T01:26:28.984Z,95386.69
2022-09-02T01:30:14.449Z,95382.41
2022-09-02T01:33:58.121Z,95378.75
2022-09-02T01:37:42.164Z,95377.34
2022-09-02T01:41:39.461Z,95373.31
2022-09-02T01:45:22.416Z,95368.47
2022-09-02T01:49:06.033Z,95370.53
2022-09-02T01:52:48.916Z,95362.03
2022-09-02T01:56:31.722Z,95359.59
2022-09-02T02:00:17.584Z,95369.81
2022-09-02T02:04:00.918Z,95359.66
2022-09-02T02:07:43.785Z,95367.00
2022-09-02T02:11:26.543Z,95360.91
2022-09-02T02:15:11.691Z,95372.72
2022-09-02T02:18:55.914Z,95358.94
2022-09-02T02:22:39.213Z,95358.94
2022-09-02T02:26:22.097Z,95353.25
2022-09-02T02:30:06.400Z,95363.00
2022-09-02T02:33:49.171Z,95352.88
2022-09-02T02:37:33.347Z,95355.38
2022-09-02T02:41:19.019Z,95344.63
2022-09-02T02:45:01.827Z,95353.00
2022-09-02T02:48:44.607Z,95347.94
2022-09-02T02:52:27.397Z,95337.81
2022-09-02T02:56:11.543Z,95337.22
2022-09-02T02:59:54.326Z,95338.47
2022-09-02T03:03:37.283Z,95339.72
2022-09-02T03:07:20.020Z,95345.22
2022-09-02T03:11:02.989Z,95334.88
2022-09-02T03:14:47.092Z,95337.13
2022-09-02T03:18:29.848Z,95332.09
2022-09-02T03:22:13.160Z,95334.13
2022-09-02T03:25:55.942Z,95326.88
2022-09-02T03:29:39.020Z,95330.97
2022-09-02T03:33:23.235Z,95337.47
2022-09-02T03:37:06.164Z,95333.00
2022-09-02T03:40:49.006Z,95334.03
2022-09-02T03:44:33.174Z,95324.94
2022-09-02T03:48:17.124Z,95325.34
2022-09-02T03:52:01.323Z,95317.66
2022-09-02T03:55:44.371Z,95331.06
2022-09-02T03:59:27.288Z,95326.81
2022-09-02T04:03:10.115Z,95321.97
2022-09-02T04:06:52.928Z,95325.03
2022-09-02T04:10:38.257Z,95327.06
2022-09-02T04:14:21.094Z,95316.94
2022-09-02T04:18:59.205Z,95309.25
2022-09-02T04:22:43.718Z,95314.53
2022-09-02T04:26:27.893Z,95316.78
2022-09-02T04:30:11.773Z,95318.84
2022-09-02T04:33:54.557Z,95314.81
2022-09-02T04:37:37.401Z,95317.44
2022-09-02T04:41:22.580Z,95326.59
2022-09-02T04:45:08.035Z,95314.84
2022-09-02T04:48:51.424Z,95315.88
2022-09-02T04:52:34.140Z,95318.72
2022-09-02T04:56:18.988Z,95313.69
2022-09-02T05:00:03.789Z,95318.53
2022-09-02T05:03:48.713Z,95326.00
2022-09-02T05:07:31.496Z,95324.38
2022-09-02T05:11:18.480Z,95317.66
2022-09-02T05:15:01.649Z,95321.47
2022-09-02T05:18:45.026Z,95323.47
2022-09-02T05:22:29.520Z,95326.69
2022-09-02T05:26:14.106Z,95333.97
2022-09-02T05:29:59.606Z,95330.31
2022-09-02T05:33:42.977Z,95334.72
2022-09-02T05:37:26.627Z,95333.91
2022-09-02T05:41:14.603Z,95332.22
2022-09-02T05:44:57.356Z,95331.41
2022-09-02T05:49:03.405Z,95334.19
2022-09-02T05:52:46.949Z,95331.66
2022-09-02T05:56:31.037Z,95327.53
2022-09-02T06:00:17.664Z,95328.88
2022-09-02T06:04:02.350Z,95316.41
2022-09-02T06:07:45.107Z,95323.41
2022-09-02T06:11:28.827Z,95320.06
2022-09-02T06:15:13.551Z,95314.47
2022-09-02T06:18:56.299Z,95316.94
2022-09-02T06:22:39.057Z,95314.56
2022-09-02T06:26:21.917Z,95317.94
2022-09-02T06:30:05.303Z,95319.69
2022-09-02T06:33:52.889Z,95318.00
2022-09-02T06:37:35.702Z,95324.38
2022-09-02T06:41:22.829Z,95315.66
2022-09-02T06:45:06.428Z,95312.69
2022-09-02T06:48:50.889Z,95326.19
2022-09-02T06:52:34.328Z,95308.94
2022-09-02T06:56:17.135Z,95326.50
2022-09-02T07:00:02.469Z,95319.84
2022-09-02T07:04:03.324Z,95321.91
2022-09-02T07:07:49.994Z,95323.66
2022-09-02T07:11:33.201Z,95325.38
2022-09-02T07:15:16.091Z,95327.09
2022-09-02T07:19:01.224Z,95324.09
2022-09-02T07:22:44.104Z,95325.25
2022-09-02T07:26:29.195Z,95319.53
2022-09-02T07:30:12.821Z,95317.00
2022-09-02T07:33:58.754Z,95327.81
2022-09-02T07:37:41.551Z,95318.94
2022-09-02T07:41:27.002Z,95322.72
2022-09-02T07:45:15.552Z,95320.19
2022-09-02T07:48:58.512Z,95317.63
2022-09-02T07:52:41.299Z,95305.63
2022-09-02T07:56:26.330Z,95306.66
2022-09-02T08:00:13.631Z,95319.72
2022-09-02T08:03:57.933Z,95310.81
2022-09-02T08:07:45.287Z,95310.81
2022-09-02T08:11:28.923Z,95312.44
2022-09-02T08:15:14.387Z,95314.38
2022-09-02T08:18:58.093Z,95307.31
2022-09-02T08:22:41.015Z,95304.72
2022-09-02T08:26:24.156Z,95303.19
2022-09-02T08:30:09.976Z,95315.59
2022-09-02T08:33:54.421Z,95311.56
2022-09-02T08:37:38.097Z,95304.25
2022-09-02T08:41:23.631Z,95302.75
2022-09-02T08:45:12.757Z,95295.22
2022-09-02T08:48:59.468Z,95291.72
2022-09-02T08:52:45.572Z,95291.06
2022-09-02T08:56:28.449Z,95292.06
2022-09-02T09:00:13.419Z,95298.38
2022-09-02T09:04:09.176Z,95298.50
2022-09-02T09:08:02.381Z,95291.88
2022-09-02T09:11:48.723Z,95292.19
2022-09-02T09:15:36.930Z,95297.09
2022-09-02T09:19:28.628Z,95287.59
2022-09-02T09:23:34.213Z,95287.94
2022-09-02T09:27:19.160Z,95286.50
2022-09-02T09:31:02.019Z,95281.25
2022-09-02T09:35:03.150Z,95274.38
2022-09-02T09:38:45.941Z,95269.91
2022-09-02T09:42:33.814Z,95267.06
2022-09-02T09:46:27.680Z,95276.16
2022-09-02T09:50:16.010Z,95263.97
2022-09-02T09:54:16.084Z,95265.34
2022-09-02T09:58:09.381Z,95273.66
2022-09-02T10:01:52.495Z,95259.06
2022-09-02T10:05:38.104Z,95256.69
2022-09-02T10:09:31.955Z,95262.84
2022-09-02T10:13:22.483Z,95249.25
2022-09-02T10:17:15.820Z,95257.88
2022-09-02T10:21:16.323Z,95261.94
2022-09-02T10:25:09.728Z,95267.00
2022-09-02T10:29:31.151Z,95258.19
2022-09-02T10:33:31.566Z,95260.34
2022-09-02T10:37:19.506Z,95249.69
2022-09-02T10:41:11.551Z,95258.53
2022-09-02T10:45:00.750Z,95245.78
2022-09-02T10:48:52.922Z,95243.16
2022-09-02T10:53:03.729Z,95244.78
2022-09-02T10:56:53.567Z,95238.91
2022-09-02T11:00:40.690Z,95232.00
2022-09-02T11:04:30.555Z,95227.72
2022-09-02T11:08:19.691Z,95225.56
2022-09-02T11:12:07.626Z,95221.59
2022-09-02T11:15:54.080Z,95224.25
2022-09-02T11:19:41.255Z,95222.97
2022-09-02T11:23:34.097Z,95212.84
2022-09-02T11:27:41.715Z,95209.38
2022-09-02T11:31:28.984Z,95216.06
2022-09-02T11:35:16.277Z,95213.13
2022-09-02T11:39:02.961Z,95215.81
2022-09-02T11:42:59.885Z,95209.72
2022-09-02T11:47:07.904Z,95215.59
2022-09-02T11:51:11.868Z,95200.66
2022-09-02T11:55:05.816Z,95200.63
2022-09-02T11:58:49.500Z,95202.22
2022-09-02T12:02:36.681Z,95207.56
2022-09-02T12:06:20.981Z,95204.31
2022-09-02T12:10:08.722Z,95204.81
2022-09-02T12:13:51.516Z,95201.56
2022-09-02T12:17:55.513Z,95184.44
2022-09-02T12:22:16.705Z,95193.50
2022-09-02T12:26:03.725Z,95197.47
2022-09-02T12:29:46.586Z,95193.94
2022-09-02T12:33:31.269Z,95202.41
2022-09-02T12:37:54.256Z,95192.69
2022-09-02T12:41:44.368Z,95192.13
2022-09-02T12:45:32.359Z,95187.72
2022-09-02T12:49:28.420Z,95180.13
2022-09-02T12:53:36.176Z,95188.81
2022-09-02T12:57:20.800Z,95187.97
2022-09-02T13:01:14.387Z,95176.56
2022-09-02T13:05:04.864Z,95179.13
2022-09-02T13:13:34.442Z,95173.53
2022-09-02T13:17:39.925Z,95176.94
2022-09-02T13:21:43.786Z,95168.41
2022-09-02T13:25:47.086Z,95164.38
2022-09-02T13:29:53.036Z,95149.06
2022-09-02T13:33:39.411Z,95158.31
2022-09-02T13:37:32.897Z,95152.47
2022-09-02T13:41:29.258Z,95144.72
2022-09-02T13:45:18.757Z,95140.56
2022-09-02T13:49:01.582Z,95135.63
2022-09-02T13:53:34.647Z,95146.59
2022-09-02T13:56:50.220Z,95150.13
2022-09-02T14:00:36.184Z,95144.28
2022-09-02T14:04:19.500Z,95139.97
2022-09-02T14:08:08.140Z,95135.97
2022-09-02T14:11:51.321Z,95140.66
2022-09-02T14:15:36.047Z,95132.84
2022-09-02T14:19:25.667Z,95129.66
2022-09-02T14:23:09.060Z,95131.81
2022-09-02T14:26:53.352Z,95118.50
2022-09-02T14:30:39.514Z,95120.31
2022-09-02T14:34:39.024Z,95121.56
2022-09-02T14:38:24.524Z,95103.34
2022-09-02T14:42:07.783Z,95104.63
2022-09-02T14:45:52.007Z,95098.91
2022-09-02T14:49:39.324Z,95095.69
2022-09-02T14:53:23.224Z,95101.34
2022-09-02T14:57:06.848Z,95089.25
2022-09-02T15:00:53.745Z,95089.50
2022-09-02T15:04:36.493Z,95084.41
2022-09-02T15:08:19.281Z,95090.78
2022-09-02T15:12:02.912Z,95081.94
2022-09-02T15:15:46.053Z,95084.63
2022-09-02T15:19:33.162Z,95081.13
2022-09-02T15:23:16.203Z,95085.88
2022-09-02T15:26:59.406Z,95078.88
2022-09-02T15:30:42.268Z,95087.16
2022-09-02T15:34:25.385Z,95087.63
2022-09-02T15:38:10.559Z,95078.78
2022-09-02T15:41:55.354Z,95085.72
2022-09-02T15:45:39.687Z,95086.91
2022-09-02T15:49:23.614Z,95078.63
2022-09-02T15:53:06.525Z,95078.34
2022-09-02T15:56:55.426Z,95076.75
2022-09-02T16:00:39.480Z,95074.44
2022-09-02T16:04:22.595Z,95073.41
2022-09-02T16:08:05.405Z,95063.81
2022-09-02T16:11:50.675Z,95065.03
2022-09-02T16:15:34.419Z,95060.22
2022-09-02T16:19:17.823Z,95061.53
2022-09-02T16:23:00.569Z,95063.81
2022-09-02T16:26:43.487Z,95058.88
2022-09-02T16:30:29.997Z,95061.06
2022-09-02T16:34:14.602Z,95064.69
2022-09-02T16:37:57.446Z,95069.88
2022-09-02T16:41:43.834Z,95073.59
2022-09-02T16:45:27.981Z,95065.56
2022-09-02T16:49:11.726Z,95074.81
2022-09-02T16:52:55.244Z,95068.44
2022-09-02T16:56:38.566Z,95059.53
2022-09-02T17:00:23.450Z,95064.72
2022-09-02T17:04:08.710Z,95059.41
2022-09-02T17:07:55.461Z,95065.44
2022-09-02T17:11:41.171Z,95051.66
2022-09-02T17:15:24.472Z,95047.31
2022-09-02T17:19:08.687Z,95052.81
2022-09-02T17:22:51.673Z,95061.66
2022-09-02T17:26:36.056Z,95054.97
2022-09-02T17:30:18.974Z,95061.28
2022-09-02T17:34:03.892Z,95065.78
2022-09-02T17:37:48.146Z,95057.63
2022-09-02T17:41:48.330Z,95065.16
2022-09-02T17:45:31.150Z,95054.06
2022-09-02T17:49:17.217Z,95062.69
2022-09-02T17:53:01.940Z,95061.13
2022-09-02T17:57:05.317Z,95067.09
2022-09-02T18:00:50.323Z,95056.16
2022-09-02T18:04:47.483Z,95059.09
2022-09-02T18:08:37.325Z,95057.78
2022-09-02T18:12:20.389Z,95066.63
2022-09-02T18:16:16.394Z,95078.63
2022-09-02T18:20:14.062Z,95076.69
2022-09-02T18:24:03.098Z,95083.59
2022-09-02T18:27:53.041Z,95093.72
2022-09-02T18:31:42.094Z,95103.81
2022-09-02T18:35:32.663Z,95097.38
2022-09-02T18:39:44.810Z,95082.94
2022-09-02T18:43:36.909Z,95088.25
2022-09-02T18:47:22.130Z,95084.47
2022-09-02T18:51:10.304Z,95086.03
2022-09-02T18:55:02.838Z,95089.97
2022-09-02T18:58:48.199Z,95098.75
2022-09-02T19:02:36.746Z,95111.72
2022-09-02T19:06:21.938Z,95112.50
2022-09-02T19:10:09.011Z,95117.78
2022-09-02T19:13:55.542Z,95120.97
2022-09-02T19:17:39.670Z,95119.88
2022-09-02T19:21:27.258Z,95114.50
2022-09-02T19:25:13.564Z,95113.44
2022-09-02T19:28:57.119Z,95119.78
2022-09-02T19:32:43.814Z,95117.63
2022-09-02T19:36:31.260Z,95116.53
2022-09-02T19:40:21.390Z,95112.22
2022-09-02T19:44:04.453Z,95125.00
2022-09-02T19:51:50.182Z,95089.19
2022-09-02T19:55:35.857Z,95091.81
2022-09-02T19:59:18.629Z,95101.38
2022-09-02T20:03:01.507Z,95113.81
2022-09-02T20:06:44.501Z,95126.78
2022-09-02T20:10:27.990Z,95122.75
2022-09-02T20:14:14.017Z,95123.75
2022-09-02T20:18:00.823Z,95125.56
2022-09-02T20:21:45.513Z,95117.53
2022-09-02T20:25:35.510Z,95120.13
2022-09-02T20:29:34.176Z,95111.78
2022-09-02T20:33:19.316Z,95097.53
2022-09-02T20:37:10.864Z,95103.66
2022-09-02T20:40:59.784Z,95109.72
2022-09-02T20:44:51.070Z,95105.47
2022-09-02T20:48:44.194Z,95115.53
2022-09-02T20:52:31.418Z,95115.47
2022-09-02T20:56:21.277Z,95109.06
2022-09-02T21:00:09.280Z,95099.47
2022-09-02T21:03:55.972Z,95109.00
2022-09-02T21:07:45.516Z,95101.47
2022-09-02T21:11:34.041Z,95108.31
2022-09-02T21:15:28.791Z,95105.56
2022-09-02T21:19:16.280Z,95100.75
2022-09-02T21:23:01.931Z,95104.47
2022-09-02T21:26:49.906Z,95109.78
2022-09-02T21:30:41.443Z,95110.59
2022-09-02T21:34:27.898Z,95105.97
2022-09-02T21:38:12.776Z,95105.44
2022-09-02T21:42:04.438Z,95101.41
2022-09-02T21:45:54.340Z,95103.81
2022-09-02T21:49:54.179Z,95107.63
2022-09-02T21:53:46.212Z,95104.31
2022-09-02T21:57:39.735Z,95113.81
2022-09-02T22:01:42.170Z,95103.19
2022-09-02T22:05:35.026Z,95109.31
2022-09-02T22:09:21.187Z,95108.03
2022-09-02T22:13:04.719Z,95107.53
2022-09-02T22:16:56.019Z,95103.50
2022-09-02T22:20:44.092Z,95096.59
2022-09-02T22:24:29.719Z,95100.53
2022-09-02T22:28:14.861Z,95103.63
2022-09-02T22:32:00.780Z,95088.44
2022-09-02T22:35:56.441Z,95093.13
2022-09-02T22:39:43.725Z,95096.19
2022-09-02T22:43:32.439Z,95081.25
2022-09-02T22:47:43.171Z,95093.13
2022-09-02T22:51:47.536Z,95096.38
2022-09-02T22:55:46.581Z,95105.38
2022-09-02T22:59:38.776Z,95091.38
2022-09-02T23:03:26.863Z,95089.28
2022-09-02T23:07:13.379Z,95091.38
2022-09-02T23:11:00.200Z,95109.06
2022-09-02T23:14:47.556Z,95083.50
2022-09-02T23:18:37.740Z,95094.59
2022-09-02T23:22:34.429Z,95088.16
2022-09-02T23:26:31.839Z,95078.13
2022-09-02T23:30:14.887Z,95073.22
2022-09-02T23:34:06.902Z,95079.03
2022-09-02T23:38:02.908Z,95069.88
2022-09-02T23:41:46.897Z,95069.88
2022-09-02T23:45:32.136Z,95071.97
2022-09-02T23:49:23.126Z,95068.25
2022-09-02T23:53:10.681Z,95081.53
2022-09-02T23:57:02.353Z,95077.81
